sensor_id;sensor_type;location;lat;lon;timestamp;P1;durP1;ratioP1;P2;durP2;ratioP2
1825;SDS011;912;48.130;11.348;2022-08-01T00:00:08;1.17;;;1.15;;
1825;SDS011;912;48.130;11.348;2022-08-01T00:02:51;1.80;;;1.30;;
1825;SDS011;912;48.130;11.348;2022-08-01T00:05:33;1.40;;;1.30;;
1825;SDS011;912;48.130;11.348;2022-08-01T00:08:18;1.00;;;0.90;;
1825;SDS011;912;48.130;11.348;2022-08-01T00:11:00;3.00;;;1.77;;
1825;SDS011;912;48.130;11.348;2022-08-01T00:13:42;1.60;;;1.50;;
1825;SDS011;912;48.130;11.348;2022-08-01T00:16:26;1.10;;;1.10;;
1825;SDS011;912;48.130;11.348;2022-08-01T00:19:10;1.30;;;1.20;;
1825;SDS011;912;48.130;11.348;2022-08-01T00:21:55;1.30;;;1.20;;
1825;SDS011;912;48.130;11.348;2022-08-01T00:24:37;1.10;;;1.00;;
1825;SDS011;912;48.130;11.348;2022-08-01T00:27:18;1.62;;;1.52;;
1825;SDS011;912;48.130;11.348;2022-08-01T00:30:00;1.30;;;1.20;;
1825;SDS011;912;48.130;11.348;2022-08-01T00:32:42;1.50;;;1.40;;
1825;SDS011;912;48.130;11.348;2022-08-01T00:35:49;1.50;;;1.30;;
1825;SDS011;912;48.130;11.348;2022-08-01T00:38:31;1.80;;;1.42;;
1825;SDS011;912;48.130;11.348;2022-08-01T00:41:13;2.03;;;1.27;;
1825;SDS011;912;48.130;11.348;2022-08-01T00:43:55;1.40;;;1.30;;
1825;SDS011;912;48.130;11.348;2022-08-01T00:46:36;1.48;;;1.37;;
1825;SDS011;912;48.130;11.348;2022-08-01T00:49:18;2.37;;;1.62;;
1825;SDS011;912;48.130;11.348;2022-08-01T00:52:00;1.42;;;1.33;;
1825;SDS011;912;48.130;11.348;2022-08-01T00:54:41;2.40;;;1.40;;
1825;SDS011;912;48.130;11.348;2022-08-01T00:57:23;1.30;;;1.20;;
1825;SDS011;912;48.130;11.348;2022-08-01T01:00:05;1.70;;;1.58;;
1825;SDS011;912;48.130;11.348;2022-08-01T01:02:48;1.33;;;1.20;;
1825;SDS011;912;48.130;11.348;2022-08-01T01:05:30;1.40;;;1.30;;
1825;SDS011;912;48.130;11.348;2022-08-01T01:08:13;1.50;;;1.40;;
1825;SDS011;912;48.130;11.348;2022-08-01T01:10:55;1.92;;;1.48;;
1825;SDS011;912;48.130;11.348;2022-08-01T01:13:43;1.80;;;1.30;;
1825;SDS011;912;48.130;11.348;2022-08-01T01:16:27;1.50;;;1.40;;
1825;SDS011;912;48.130;11.348;2022-08-01T01:19:08;1.77;;;1.58;;
1825;SDS011;912;48.130;11.348;2022-08-01T01:21:56;2.95;;;1.30;;
1825;SDS011;912;48.130;11.348;2022-08-01T01:24:58;1.85;;;1.20;;
1825;SDS011;912;48.130;11.348;2022-08-01T01:30:16;2.95;;;1.30;;
1825;SDS011;912;48.130;11.348;2022-08-01T01:33:01;1.60;;;1.50;;
1825;SDS011;912;48.130;11.348;2022-08-01T01:35:51;1.80;;;1.70;;
1825;SDS011;912;48.130;11.348;2022-08-01T01:38:36;3.28;;;1.50;;
1825;SDS011;912;48.130;11.348;2022-08-01T01:41:17;2.00;;;1.80;;
1825;SDS011;912;48.130;11.348;2022-08-01T01:43:59;1.98;;;1.20;;
1825;SDS011;912;48.130;11.348;2022-08-01T01:46:44;1.40;;;1.30;;
1825;SDS011;912;48.130;11.348;2022-08-01T01:49:26;1.70;;;1.48;;
1825;SDS011;912;48.130;11.348;2022-08-01T01:52:07;1.65;;;1.40;;
1825;SDS011;912;48.130;11.348;2022-08-01T01:54:49;2.70;;;1.45;;
1825;SDS011;912;48.130;11.348;2022-08-01T01:57:31;1.43;;;1.10;;
1825;SDS011;912;48.130;11.348;2022-08-01T02:00:13;3.30;;;1.60;;
1825;SDS011;912;48.130;11.348;2022-08-01T02:02:54;1.48;;;1.37;;
1825;SDS011;912;48.130;11.348;2022-08-01T02:05:36;1.80;;;1.30;;
1825;SDS011;912;48.130;11.348;2022-08-01T02:08:18;1.98;;;1.20;;
1825;SDS011;912;48.130;11.348;2022-08-01T02:11:00;1.75;;;1.60;;
1825;SDS011;912;48.130;11.348;2022-08-01T02:13:51;3.40;;;1.10;;
1825;SDS011;912;48.130;11.348;2022-08-01T02:16:40;1.30;;;1.20;;
1825;SDS011;912;48.130;11.348;2022-08-01T02:19:21;1.10;;;1.10;;
1825;SDS011;912;48.130;11.348;2022-08-01T02:22:06;1.40;;;1.30;;
1825;SDS011;912;48.130;11.348;2022-08-01T02:24:50;1.50;;;1.30;;
1825;SDS011;912;48.130;11.348;2022-08-01T02:27:34;1.53;;;1.40;;
1825;SDS011;912;48.130;11.348;2022-08-01T02:30:15;1.70;;;1.40;;
1825;SDS011;912;48.130;11.348;2022-08-01T02:32:59;1.52;;;1.40;;
1825;SDS011;912;48.130;11.348;2022-08-01T02:35:50;1.10;;;1.00;;
1825;SDS011;912;48.130;11.348;2022-08-01T02:38:32;1.50;;;1.40;;
1825;SDS011;912;48.130;11.348;2022-08-01T02:41:13;1.50;;;1.30;;
1825;SDS011;912;48.130;11.348;2022-08-01T02:43:56;1.17;;;1.08;;
1825;SDS011;912;48.130;11.348;2022-08-01T02:46:37;1.60;;;1.10;;
1825;SDS011;912;48.130;11.348;2022-08-01T02:49:17;1.27;;;1.17;;
1825;SDS011;912;48.130;11.348;2022-08-01T02:52:03;1.70;;;1.30;;
1825;SDS011;912;48.130;11.348;2022-08-01T02:54:45;1.23;;;1.12;;
1825;SDS011;912;48.130;11.348;2022-08-01T02:57:27;1.42;;;1.20;;
1825;SDS011;912;48.130;11.348;2022-08-01T03:00:09;1.55;;;1.37;;
1825;SDS011;912;48.130;11.348;2022-08-01T03:02:51;1.45;;;1.35;;
1825;SDS011;912;48.130;11.348;2022-08-01T03:05:33;2.80;;;1.60;;
1825;SDS011;912;48.130;11.348;2022-08-01T03:08:15;0.97;;;0.80;;
1825;SDS011;912;48.130;11.348;2022-08-01T03:10:57;2.00;;;1.80;;
1825;SDS011;912;48.130;11.348;2022-08-01T03:13:38;1.30;;;1.20;;
1825;SDS011;912;48.130;11.348;2022-08-01T03:16:20;1.55;;;1.15;;
1825;SDS011;912;48.130;11.348;2022-08-01T03:19:06;2.40;;;1.20;;
1825;SDS011;912;48.130;11.348;2022-08-01T03:21:47;2.40;;;1.42;;
1825;SDS011;912;48.130;11.348;2022-08-01T03:24:31;1.70;;;1.15;;
1825;SDS011;912;48.130;11.348;2022-08-01T03:27:13;1.90;;;1.10;;
1825;SDS011;912;48.130;11.348;2022-08-01T03:29:55;1.45;;;1.35;;
1825;SDS011;912;48.130;11.348;2022-08-01T03:32:36;4.03;;;1.10;;
1825;SDS011;912;48.130;11.348;2022-08-01T03:35:53;1.20;;;1.10;;
1825;SDS011;912;48.130;11.348;2022-08-01T03:38:34;2.00;;;1.50;;
1825;SDS011;912;48.130;11.348;2022-08-01T03:41:18;1.50;;;1.40;;
1825;SDS011;912;48.130;11.348;2022-08-01T03:44:02;1.10;;;1.00;;
1825;SDS011;912;48.130;11.348;2022-08-01T03:46:43;1.40;;;1.30;;
1825;SDS011;912;48.130;11.348;2022-08-01T03:49:29;1.80;;;1.60;;
1825;SDS011;912;48.130;11.348;2022-08-01T03:52:11;1.60;;;1.50;;
1825;SDS011;912;48.130;11.348;2022-08-01T03:54:56;2.17;;;1.67;;
1825;SDS011;912;48.130;11.348;2022-08-01T03:57:37;1.42;;;1.30;;
1825;SDS011;912;48.130;11.348;2022-08-01T04:00:22;1.23;;;1.12;;
1825;SDS011;912;48.130;11.348;2022-08-01T04:03:04;1.10;;;1.00;;
1825;SDS011;912;48.130;11.348;2022-08-01T04:05:45;1.42;;;1.33;;
1825;SDS011;912;48.130;11.348;2022-08-01T04:13:52;1.10;;;1.00;;
1825;SDS011;912;48.130;11.348;2022-08-01T04:16:34;1.50;;;1.40;;
1825;SDS011;912;48.130;11.348;2022-08-01T04:19:19;1.20;;;1.10;;
1825;SDS011;912;48.130;11.348;2022-08-01T04:22:00;3.20;;;1.35;;
1825;SDS011;912;48.130;11.348;2022-08-01T04:24:46;1.60;;;1.33;;
1825;SDS011;912;48.130;11.348;2022-08-01T04:27:28;1.25;;;1.15;;
1825;SDS011;912;48.130;11.348;2022-08-01T04:30:09;1.20;;;1.10;;
1825;SDS011;912;48.130;11.348;2022-08-01T04:32:52;1.27;;;1.10;;
1825;SDS011;912;48.130;11.348;2022-08-01T04:35:50;3.17;;;1.08;;
1825;SDS011;912;48.130;11.348;2022-08-01T04:38:32;1.70;;;1.27;;
1825;SDS011;912;48.130;11.348;2022-08-01T04:41:13;1.65;;;1.02;;
1825;SDS011;912;48.130;11.348;2022-08-01T04:43:55;2.15;;;1.80;;
1825;SDS011;912;48.130;11.348;2022-08-01T04:46:36;1.50;;;1.10;;
1825;SDS011;912;48.130;11.348;2022-08-01T04:49:18;2.53;;;1.30;;
1825;SDS011;912;48.130;11.348;2022-08-01T04:52:02;1.58;;;1.35;;
1825;SDS011;912;48.130;11.348;2022-08-01T04:54:48;1.60;;;1.50;;
1825;SDS011;912;48.130;11.348;2022-08-01T05:00:11;1.90;;;1.30;;
1825;SDS011;912;48.130;11.348;2022-08-01T05:02:53;2.30;;;1.20;;
1825;SDS011;912;48.130;11.348;2022-08-01T05:05:36;1.08;;;0.80;;
1825;SDS011;912;48.130;11.348;2022-08-01T05:08:17;1.20;;;1.10;;
1825;SDS011;912;48.130;11.348;2022-08-01T05:11:04;1.37;;;1.27;;
1825;SDS011;912;48.130;11.348;2022-08-01T05:16:20;1.70;;;1.30;;
1825;SDS011;912;48.130;11.348;2022-08-01T05:19:02;1.55;;;1.37;;
1825;SDS011;912;48.130;11.348;2022-08-01T05:21:44;1.20;;;1.00;;
1825;SDS011;912;48.130;11.348;2022-08-01T05:24:27;1.53;;;1.40;;
1825;SDS011;912;48.130;11.348;2022-08-01T05:27:08;1.42;;;1.33;;
1825;SDS011;912;48.130;11.348;2022-08-01T05:29:50;2.60;;;1.10;;
1825;SDS011;912;48.130;11.348;2022-08-01T05:32:34;1.40;;;1.20;;
1825;SDS011;912;48.130;11.348;2022-08-01T05:35:50;1.30;;;1.20;;
1825;SDS011;912;48.130;11.348;2022-08-01T05:38:32;1.50;;;1.40;;
1825;SDS011;912;48.130;11.348;2022-08-01T05:41:14;1.83;;;1.15;;
1825;SDS011;912;48.130;11.348;2022-08-01T05:43:56;1.20;;;1.10;;
1825;SDS011;912;48.130;11.348;2022-08-01T05:46:37;1.30;;;1.20;;
1825;SDS011;912;48.130;11.348;2022-08-01T05:49:19;2.45;;;1.40;;
1825;SDS011;912;48.130;11.348;2022-08-01T05:52:01;1.40;;;1.20;;
1825;SDS011;912;48.130;11.348;2022-08-01T05:54:46;1.42;;;1.20;;
1825;SDS011;912;48.130;11.348;2022-08-01T05:57:28;3.70;;;1.30;;
1825;SDS011;912;48.130;11.348;2022-08-01T06:00:12;1.50;;;1.30;;
1825;SDS011;912;48.130;11.348;2022-08-01T06:02:54;7.30;;;1.58;;
1825;SDS011;912;48.130;11.348;2022-08-01T06:05:36;1.80;;;1.10;;
1825;SDS011;912;48.130;11.348;2022-08-01T06:08:18;1.75;;;1.12;;
1825;SDS011;912;48.130;11.348;2022-08-01T06:11:00;1.52;;;1.25;;
1825;SDS011;912;48.130;11.348;2022-08-01T06:13:42;1.33;;;0.93;;
1825;SDS011;912;48.130;11.348;2022-08-01T06:16:24;1.67;;;1.40;;
1825;SDS011;912;48.130;11.348;2022-08-01T06:19:09;1.87;;;1.00;;
1825;SDS011;912;48.130;11.348;2022-08-01T06:21:52;2.00;;;1.50;;
1825;SDS011;912;48.130;11.348;2022-08-01T06:24:34;1.52;;;1.42;;
1825;SDS011;912;48.130;11.348;2022-08-01T06:27:19;1.30;;;1.20;;
1825;SDS011;912;48.130;11.348;2022-08-01T06:30:01;2.10;;;1.10;;
1825;SDS011;912;48.130;11.348;2022-08-01T06:32:46;1.50;;;1.10;;
1825;SDS011;912;48.130;11.348;2022-08-01T06:35:50;1.30;;;1.00;;
1825;SDS011;912;48.130;11.348;2022-08-01T06:38:31;1.90;;;1.40;;
1825;SDS011;912;48.130;11.348;2022-08-01T06:41:13;1.70;;;1.52;;
1825;SDS011;912;48.130;11.348;2022-08-01T06:43:56;2.83;;;1.12;;
1825;SDS011;912;48.130;11.348;2022-08-01T06:46:38;1.90;;;1.20;;
1825;SDS011;912;48.130;11.348;2022-08-01T06:49:21;1.20;;;1.10;;
1825;SDS011;912;48.130;11.348;2022-08-01T06:52:03;1.50;;;1.30;;
1825;SDS011;912;48.130;11.348;2022-08-01T06:54:45;1.45;;;1.15;;
1825;SDS011;912;48.130;11.348;2022-08-01T06:57:27;2.03;;;1.25;;
1825;SDS011;912;48.130;11.348;2022-08-01T07:00:09;2.67;;;1.62;;
1825;SDS011;912;48.130;11.348;2022-08-01T07:05:27;1.95;;;1.77;;
1825;SDS011;912;48.130;11.348;2022-08-01T07:08:09;1.27;;;1.05;;
1825;SDS011;912;48.130;11.348;2022-08-01T07:10:51;0.93;;;0.93;;
1825;SDS011;912;48.130;11.348;2022-08-01T07:13:32;1.50;;;1.20;;
1825;SDS011;912;48.130;11.348;2022-08-01T07:16:17;3.50;;;1.20;;
1825;SDS011;912;48.130;11.348;2022-08-01T07:18:59;2.60;;;1.40;;
1825;SDS011;912;48.130;11.348;2022-08-01T07:21:41;1.20;;;0.90;;
1825;SDS011;912;48.130;11.348;2022-08-01T07:24:23;1.43;;;1.33;;
1825;SDS011;912;48.130;11.348;2022-08-01T07:27:05;2.28;;;1.60;;
1825;SDS011;912;48.130;11.348;2022-08-01T07:29:47;1.17;;;1.00;;
1825;SDS011;912;48.130;11.348;2022-08-01T07:32:30;2.10;;;1.30;;
1825;SDS011;912;48.130;11.348;2022-08-01T07:35:53;1.30;;;1.20;;
1825;SDS011;912;48.130;11.348;2022-08-01T07:38:35;1.60;;;1.35;;
1825;SDS011;912;48.130;11.348;2022-08-01T07:41:17;1.70;;;1.23;;
1825;SDS011;912;48.130;11.348;2022-08-01T07:43:58;2.05;;;1.40;;
1825;SDS011;912;48.130;11.348;2022-08-01T07:46:43;1.60;;;1.27;;
1825;SDS011;912;48.130;11.348;2022-08-01T07:49:25;2.10;;;1.90;;
1825;SDS011;912;48.130;11.348;2022-08-01T07:52:10;2.10;;;1.90;;
1825;SDS011;912;48.130;11.348;2022-08-01T07:54:53;1.52;;;1.20;;
1825;SDS011;912;48.130;11.348;2022-08-01T07:57:38;1.50;;;1.00;;
1825;SDS011;912;48.130;11.348;2022-08-01T08:02:54;1.90;;;1.70;;
1825;SDS011;912;48.130;11.348;2022-08-01T08:05:39;2.40;;;1.83;;
1825;SDS011;912;48.130;11.348;2022-08-01T08:08:21;2.80;;;1.80;;
1825;SDS011;912;48.130;11.348;2022-08-01T08:11:06;1.30;;;1.15;;
1825;SDS011;912;48.130;11.348;2022-08-01T08:13:48;1.58;;;1.30;;
1825;SDS011;912;48.130;11.348;2022-08-01T08:16:30;1.67;;;1.20;;
1825;SDS011;912;48.130;11.348;2022-08-01T08:19:12;1.52;;;1.42;;
1825;SDS011;912;48.130;11.348;2022-08-01T08:21:54;2.10;;;1.37;;
1825;SDS011;912;48.130;11.348;2022-08-01T08:24:37;1.67;;;1.30;;
1825;SDS011;912;48.130;11.348;2022-08-01T08:27:18;1.90;;;1.50;;
1825;SDS011;912;48.130;11.348;2022-08-01T08:30:00;2.12;;;1.30;;
1825;SDS011;912;48.130;11.348;2022-08-01T08:32:42;1.77;;;1.60;;
1825;SDS011;912;48.130;11.348;2022-08-01T08:35:53;1.40;;;1.30;;
1825;SDS011;912;48.130;11.348;2022-08-01T08:41:09;3.30;;;1.30;;
1825;SDS011;912;48.130;11.348;2022-08-01T08:43:51;1.10;;;1.00;;
1825;SDS011;912;48.130;11.348;2022-08-01T08:46:40;1.50;;;1.40;;
1825;SDS011;912;48.130;11.348;2022-08-01T08:49:23;1.40;;;1.30;;
1825;SDS011;912;48.130;11.348;2022-08-01T08:52:03;1.10;;;1.00;;
1825;SDS011;912;48.130;11.348;2022-08-01T08:54:45;3.05;;;1.70;;
1825;SDS011;912;48.130;11.348;2022-08-01T08:57:26;1.50;;;1.30;;
1825;SDS011;912;48.130;11.348;2022-08-01T09:00:08;3.20;;;1.30;;
1825;SDS011;912;48.130;11.348;2022-08-01T09:02:51;1.60;;;1.10;;
1825;SDS011;912;48.130;11.348;2022-08-01T09:05:33;1.55;;;1.17;;
1825;SDS011;912;48.130;11.348;2022-08-01T09:08:15;1.70;;;0.95;;
1825;SDS011;912;48.130;11.348;2022-08-01T09:10:57;1.20;;;1.10;;
1825;SDS011;912;48.130;11.348;2022-08-01T09:13:41;1.17;;;0.90;;
1825;SDS011;912;48.130;11.348;2022-08-01T09:16:23;1.20;;;1.10;;
1825;SDS011;912;48.130;11.348;2022-08-01T09:19:07;1.30;;;1.20;;
1825;SDS011;912;48.130;11.348;2022-08-01T09:21:56;3.62;;;1.08;;
1825;SDS011;912;48.130;11.348;2022-08-01T09:24:38;1.77;;;1.23;;
1825;SDS011;912;48.130;11.348;2022-08-01T09:27:22;2.00;;;0.88;;
1825;SDS011;912;48.130;11.348;2022-08-01T09:30:09;1.50;;;0.90;;
1825;SDS011;912;48.130;11.348;2022-08-01T09:32:56;0.90;;;0.80;;
1825;SDS011;912;48.130;11.348;2022-08-01T09:35:56;1.12;;;0.80;;
1825;SDS011;912;48.130;11.348;2022-08-01T09:38:36;1.00;;;0.90;;
1825;SDS011;912;48.130;11.348;2022-08-01T09:41:29;1.10;;;0.80;;
1825;SDS011;912;48.130;11.348;2022-08-01T09:44:09;1.30;;;1.20;;
1825;SDS011;912;48.130;11.348;2022-08-01T09:49:30;1.60;;;1.00;;
1825;SDS011;912;48.130;11.348;2022-08-01T09:52:14;0.80;;;0.80;;
1825;SDS011;912;48.130;11.348;2022-08-01T09:54:57;1.50;;;1.00;;
1825;SDS011;912;48.130;11.348;2022-08-01T09:57:37;1.10;;;1.00;;
1825;SDS011;912;48.130;11.348;2022-08-01T10:00:19;1.10;;;0.70;;
1825;SDS011;912;48.130;11.348;2022-08-01T10:06:10;1.00;;;0.80;;
1825;SDS011;912;48.130;11.348;2022-08-01T10:08:46;0.85;;;0.85;;
1825;SDS011;912;48.130;11.348;2022-08-01T10:11:27;1.00;;;0.90;;
1825;SDS011;912;48.130;11.348;2022-08-01T10:14:11;1.35;;;1.10;;
1825;SDS011;912;48.130;11.348;2022-08-01T10:16:54;2.30;;;1.20;;
1825;SDS011;912;48.130;11.348;2022-08-01T10:19:37;1.08;;;0.98;;
1825;SDS011;912;48.130;11.348;2022-08-01T10:22:18;2.47;;;1.00;;
1825;SDS011;912;48.130;11.348;2022-08-01T10:25:02;1.15;;;1.05;;
1825;SDS011;912;48.130;11.348;2022-08-01T10:27:42;1.05;;;0.90;;
1825;SDS011;912;48.130;11.348;2022-08-01T10:30:23;1.02;;;0.93;;
1825;SDS011;912;48.130;11.348;2022-08-01T10:35:52;1.70;;;1.10;;
1825;SDS011;912;48.130;11.348;2022-08-01T10:38:34;1.37;;;1.00;;
1825;SDS011;912;48.130;11.348;2022-08-01T10:41:21;1.90;;;0.90;;
1825;SDS011;912;48.130;11.348;2022-08-01T10:44:03;1.23;;;1.12;;
1825;SDS011;912;48.130;11.348;2022-08-01T10:46:45;1.77;;;1.20;;
1825;SDS011;912;48.130;11.348;2022-08-01T10:52:00;1.10;;;0.90;;
1825;SDS011;912;48.130;11.348;2022-08-01T10:54:42;1.62;;;1.30;;
1825;SDS011;912;48.130;11.348;2022-08-01T10:57:24;2.30;;;1.00;;
1825;SDS011;912;48.130;11.348;2022-08-01T11:00:06;1.20;;;1.10;;
1825;SDS011;912;48.130;11.348;2022-08-01T11:05:39;1.10;;;1.00;;
1825;SDS011;912;48.130;11.348;2022-08-01T11:08:21;2.70;;;1.10;;
1825;SDS011;912;48.130;11.348;2022-08-01T11:11:02;2.28;;;0.88;;
1825;SDS011;912;48.130;11.348;2022-08-01T11:16:41;1.40;;;0.80;;
1825;SDS011;912;48.130;11.348;2022-08-01T11:19:23;1.15;;;1.05;;
1825;SDS011;912;48.130;11.348;2022-08-01T11:22:05;1.20;;;1.10;;
1825;SDS011;912;48.130;11.348;2022-08-01T11:27:30;0.90;;;0.75;;
1825;SDS011;912;48.130;11.348;2022-08-01T11:38:32;1.10;;;1.00;;
1825;SDS011;912;48.130;11.348;2022-08-01T11:44:03;1.33;;;1.23;;
1825;SDS011;912;48.130;11.348;2022-08-01T11:46:47;0.98;;;0.77;;
1825;SDS011;912;48.130;11.348;2022-08-01T11:49:44;1.30;;;0.80;;
1825;SDS011;912;48.130;11.348;2022-08-01T11:52:30;2.00;;;0.80;;
1825;SDS011;912;48.130;11.348;2022-08-01T11:55:11;0.70;;;0.70;;
1825;SDS011;912;48.130;11.348;2022-08-01T11:57:59;0.55;;;0.55;;
1825;SDS011;912;48.130;11.348;2022-08-01T12:00:49;0.90;;;0.80;;
1825;SDS011;912;48.130;11.348;2022-08-01T12:03:26;2.10;;;0.90;;
1825;SDS011;912;48.130;11.348;2022-08-01T12:06:08;2.20;;;0.80;;
1825;SDS011;912;48.130;11.348;2022-08-01T12:08:50;0.60;;;0.60;;
1825;SDS011;912;48.130;11.348;2022-08-01T12:11:32;0.80;;;0.60;;
1825;SDS011;912;48.130;11.348;2022-08-01T12:14:15;1.30;;;0.75;;
1825;SDS011;912;48.130;11.348;2022-08-01T12:17:00;0.98;;;0.90;;
1825;SDS011;912;48.130;11.348;2022-08-01T12:19:41;2.70;;;0.82;;
1825;SDS011;912;48.130;11.348;2022-08-01T12:27:49;0.80;;;0.70;;
1825;SDS011;912;48.130;11.348;2022-08-01T12:30:32;1.10;;;0.70;;
1825;SDS011;912;48.130;11.348;2022-08-01T12:35:50;1.00;;;0.90;;
1825;SDS011;912;48.130;11.348;2022-08-01T12:38:32;1.60;;;0.70;;
1825;SDS011;912;48.130;11.348;2022-08-01T12:41:14;0.60;;;0.60;;
1825;SDS011;912;48.130;11.348;2022-08-01T12:43:56;1.60;;;1.30;;
1825;SDS011;912;48.130;11.348;2022-08-01T12:46:37;1.70;;;0.80;;
1825;SDS011;912;48.130;11.348;2022-08-01T12:49:19;0.80;;;0.70;;
1825;SDS011;912;48.130;11.348;2022-08-01T12:52:01;1.08;;;0.70;;
1825;SDS011;912;48.130;11.348;2022-08-01T12:57:48;2.85;;;0.90;;
1825;SDS011;912;48.130;11.348;2022-08-01T13:00:30;2.67;;;0.77;;
1825;SDS011;912;48.130;11.348;2022-08-01T13:03:13;0.55;;;0.40;;
1825;SDS011;912;48.130;11.348;2022-08-01T13:05:57;1.20;;;0.70;;
1825;SDS011;912;48.130;11.348;2022-08-01T13:08:39;0.60;;;0.50;;
1825;SDS011;912;48.130;11.348;2022-08-01T13:11:24;2.40;;;0.60;;
1825;SDS011;912;48.130;11.348;2022-08-01T13:14:06;2.40;;;0.85;;
1825;SDS011;912;48.130;11.348;2022-08-01T13:16:48;1.27;;;0.80;;
1825;SDS011;912;48.130;11.348;2022-08-01T13:22:31;0.70;;;0.60;;
1825;SDS011;912;48.130;11.348;2022-08-01T13:25:12;0.90;;;0.62;;
1825;SDS011;912;48.130;11.348;2022-08-01T13:27:48;1.87;;;0.60;;
1825;SDS011;912;48.130;11.348;2022-08-01T13:30:29;1.20;;;0.80;;
1825;SDS011;912;48.130;11.348;2022-08-01T13:35:50;1.27;;;1.10;;
1825;SDS011;912;48.130;11.348;2022-08-01T13:38:31;1.50;;;0.68;;
1825;SDS011;912;48.130;11.348;2022-08-01T13:41:08;0.90;;;0.80;;
1825;SDS011;912;48.130;11.348;2022-08-01T13:43:49;1.52;;;0.88;;
1825;SDS011;912;48.130;11.348;2022-08-01T13:46:31;1.30;;;0.93;;
1825;SDS011;912;48.130;11.348;2022-08-01T13:49:13;2.37;;;0.70;;
1825;SDS011;912;48.130;11.348;2022-08-01T13:51:55;1.00;;;0.77;;
1825;SDS011;912;48.130;11.348;2022-08-01T13:54:39;1.00;;;0.80;;
1825;SDS011;912;48.130;11.348;2022-08-01T13:57:21;1.00;;;0.77;;
1825;SDS011;912;48.130;11.348;2022-08-01T14:00:04;1.12;;;0.70;;
1825;SDS011;912;48.130;11.348;2022-08-01T14:02:46;1.50;;;0.80;;
1825;SDS011;912;48.130;11.348;2022-08-01T14:05:28;3.30;;;0.90;;
1825;SDS011;912;48.130;11.348;2022-08-01T14:08:10;0.93;;;0.73;;
1825;SDS011;912;48.130;11.348;2022-08-01T14:10:52;1.25;;;1.00;;
1825;SDS011;912;48.130;11.348;2022-08-01T14:13:33;1.30;;;0.80;;
1825;SDS011;912;48.130;11.348;2022-08-01T14:16:16;1.50;;;0.90;;
1825;SDS011;912;48.130;11.348;2022-08-01T14:18:57;0.90;;;0.70;;
1825;SDS011;912;48.130;11.348;2022-08-01T14:21:39;0.77;;;0.62;;
1825;SDS011;912;48.130;11.348;2022-08-01T14:24:22;0.70;;;0.47;;
1825;SDS011;912;48.130;11.348;2022-08-01T14:27:03;0.95;;;0.70;;
1825;SDS011;912;48.130;11.348;2022-08-01T14:29:48;0.70;;;0.55;;
1825;SDS011;912;48.130;11.348;2022-08-01T14:32:30;1.00;;;0.75;;
1825;SDS011;912;48.130;11.348;2022-08-01T14:35:49;1.40;;;0.70;;
1825;SDS011;912;48.130;11.348;2022-08-01T14:38:31;0.70;;;0.70;;
1825;SDS011;912;48.130;11.348;2022-08-01T14:41:14;1.27;;;0.62;;
1825;SDS011;912;48.130;11.348;2022-08-01T14:43:58;0.70;;;0.50;;
1825;SDS011;912;48.130;11.348;2022-08-01T14:46:40;3.12;;;1.12;;
1825;SDS011;912;48.130;11.348;2022-08-01T14:49:22;1.02;;;0.43;;
1825;SDS011;912;48.130;11.348;2022-08-01T14:52:04;1.20;;;0.50;;
1825;SDS011;912;48.130;11.348;2022-08-01T14:54:46;2.10;;;0.60;;
1825;SDS011;912;48.130;11.348;2022-08-01T14:57:29;0.95;;;0.90;;
1825;SDS011;912;48.130;11.348;2022-08-01T15:00:11;0.70;;;0.50;;
1825;SDS011;912;48.130;11.348;2022-08-01T15:02:53;2.00;;;0.52;;
1825;SDS011;912;48.130;11.348;2022-08-01T15:05:38;0.80;;;0.80;;
1825;SDS011;912;48.130;11.348;2022-08-01T15:08:21;1.05;;;0.80;;
1825;SDS011;912;48.130;11.348;2022-08-01T15:11:03;3.30;;;0.88;;
1825;SDS011;912;48.130;11.348;2022-08-01T15:13:45;1.40;;;1.10;;
1825;SDS011;912;48.130;11.348;2022-08-01T15:16:27;0.70;;;0.50;;
1825;SDS011;912;48.130;11.348;2022-08-01T15:19:12;1.30;;;1.20;;
1825;SDS011;912;48.130;11.348;2022-08-01T15:21:53;1.75;;;0.75;;
1825;SDS011;912;48.130;11.348;2022-08-01T15:24:40;1.10;;;0.50;;
1825;SDS011;912;48.130;11.348;2022-08-01T15:27:22;1.00;;;0.90;;
1825;SDS011;912;48.130;11.348;2022-08-01T15:30:03;1.92;;;0.80;;
1825;SDS011;912;48.130;11.348;2022-08-01T15:32:49;1.70;;;0.70;;
1825;SDS011;912;48.130;11.348;2022-08-01T15:35:50;0.90;;;0.60;;
1825;SDS011;912;48.130;11.348;2022-08-01T15:38:36;1.42;;;0.68;;
1825;SDS011;912;48.130;11.348;2022-08-01T15:41:13;1.40;;;0.80;;
1825;SDS011;912;48.130;11.348;2022-08-01T15:43:57;1.40;;;0.60;;
1825;SDS011;912;48.130;11.348;2022-08-01T15:46:39;0.80;;;0.50;;
1825;SDS011;912;48.130;11.348;2022-08-01T15:49:20;0.90;;;0.57;;
1825;SDS011;912;48.130;11.348;2022-08-01T15:52:03;0.77;;;0.70;;
1825;SDS011;912;48.130;11.348;2022-08-01T15:54:46;1.80;;;1.00;;
1825;SDS011;912;48.130;11.348;2022-08-01T15:57:28;3.00;;;1.00;;
1825;SDS011;912;48.130;11.348;2022-08-01T16:00:10;0.70;;;0.60;;
1825;SDS011;912;48.130;11.348;2022-08-01T16:02:52;0.70;;;0.62;;
1825;SDS011;912;48.130;11.348;2022-08-01T16:05:34;2.87;;;0.65;;
1825;SDS011;912;48.130;11.348;2022-08-01T16:08:19;0.52;;;0.30;;
1825;SDS011;912;48.130;11.348;2022-08-01T16:13:35;0.98;;;0.50;;
1825;SDS011;912;48.130;11.348;2022-08-01T16:16:17;0.80;;;0.60;;
1825;SDS011;912;48.130;11.348;2022-08-01T16:18:58;0.50;;;0.40;;
1825;SDS011;912;48.130;11.348;2022-08-01T16:22:29;0.70;;;0.50;;
1825;SDS011;912;48.130;11.348;2022-08-01T16:25:11;1.00;;;0.50;;
1825;SDS011;912;48.130;11.348;2022-08-01T16:27:53;1.30;;;0.60;;
1825;SDS011;912;48.130;11.348;2022-08-01T16:30:35;0.87;;;0.57;;
1825;SDS011;912;48.130;11.348;2022-08-01T16:35:49;2.20;;;0.60;;
1825;SDS011;912;48.130;11.348;2022-08-01T16:38:31;1.80;;;0.88;;
1825;SDS011;912;48.130;11.348;2022-08-01T16:41:13;0.75;;;0.52;;
1825;SDS011;912;48.130;11.348;2022-08-01T16:43:55;0.60;;;0.40;;
1825;SDS011;912;48.130;11.348;2022-08-01T16:46:37;0.40;;;0.30;;
1825;SDS011;912;48.130;11.348;2022-08-01T16:49:23;4.87;;;0.83;;
1825;SDS011;912;48.130;11.348;2022-08-01T16:52:06;1.50;;;0.75;;
1825;SDS011;912;48.130;11.348;2022-08-01T16:54:48;0.77;;;0.47;;
1825;SDS011;912;48.130;11.348;2022-08-01T16:57:30;1.80;;;0.80;;
1825;SDS011;912;48.130;11.348;2022-08-01T17:00:12;0.90;;;0.60;;
1825;SDS011;912;48.130;11.348;2022-08-01T17:02:55;0.65;;;0.40;;
1825;SDS011;912;48.130;11.348;2022-08-01T17:05:37;1.33;;;0.60;;
1825;SDS011;912;48.130;11.348;2022-08-01T17:08:22;1.70;;;0.80;;
1825;SDS011;912;48.130;11.348;2022-08-01T17:11:04;1.05;;;1.00;;
1825;SDS011;912;48.130;11.348;2022-08-01T17:13:49;1.17;;;0.70;;
1825;SDS011;912;48.130;11.348;2022-08-01T17:16:30;1.57;;;0.50;;
1825;SDS011;912;48.130;11.348;2022-08-01T17:21:49;0.70;;;0.45;;
1825;SDS011;912;48.130;11.348;2022-08-01T17:24:31;1.30;;;0.90;;
1825;SDS011;912;48.130;11.348;2022-08-01T17:27:13;1.00;;;0.80;;
1825;SDS011;912;48.130;11.348;2022-08-01T17:29:58;0.80;;;0.60;;
1825;SDS011;912;48.130;11.348;2022-08-01T17:32:40;1.40;;;0.70;;
1825;SDS011;912;48.130;11.348;2022-08-01T17:36:08;1.80;;;1.30;;
1825;SDS011;912;48.130;11.348;2022-08-01T17:38:49;0.77;;;0.40;;
1825;SDS011;912;48.130;11.348;2022-08-01T17:41:31;2.58;;;0.98;;
1825;SDS011;912;48.130;11.348;2022-08-01T17:44:13;3.50;;;0.55;;
1825;SDS011;912;48.130;11.348;2022-08-01T17:46:55;1.00;;;0.80;;
1825;SDS011;912;48.130;11.348;2022-08-01T17:49:36;1.90;;;0.75;;
1825;SDS011;912;48.130;11.348;2022-08-01T17:52:18;1.02;;;0.70;;
1825;SDS011;912;48.130;11.348;2022-08-01T17:55:04;1.00;;;0.70;;
1825;SDS011;912;48.130;11.348;2022-08-01T17:57:46;0.70;;;0.60;;
1825;SDS011;912;48.130;11.348;2022-08-01T18:00:27;1.40;;;0.68;;
1825;SDS011;912;48.130;11.348;2022-08-01T18:03:09;1.52;;;0.70;;
1825;SDS011;912;48.130;11.348;2022-08-01T18:05:51;1.20;;;0.73;;
1825;SDS011;912;48.130;11.348;2022-08-01T18:08:33;1.17;;;0.68;;
1825;SDS011;912;48.130;11.348;2022-08-01T18:11:15;2.55;;;0.60;;